WetterOnline ( http://www.wetteronline.de )

Wetter aktuell Hittbergen

Aktuelles Wetter: Lüchow (18m)

6-stündlich | Neueste Meldungen
Ortszeit Temperatur Wetter
Mo, 23.04. 20:00 16.7° C wolkig
Mo, 23.04. 14:00 19.4° C leicht bewölkt
Mo, 23.04. 8:00 15.3° C bewölkt
Mo, 23.04. 2:00 14.7° C wolkig
So, 22.04. 20:00 21.5° C wolkenlos
So, 22.04. 14:00 20.7° C leicht bewölkt
So, 22.04. 8:00 7.7° C wolkenlos
So, 22.04. 2:00 7.7° C wolkig
Ortszeit Temperatur Wetter
Mo, 23.04. 21:00 15.4° C wolkig
Mo, 23.04. 20:50 15.4° C wolkig
Mo, 23.04. 20:40 15.7° C wolkig
Mo, 23.04. 20:30 15.7° C leicht bewölkt
Mo, 23.04. 20:20 15.7° C leicht bewölkt
Mo, 23.04. 20:10 16.2° C leicht bewölkt
Mo, 23.04. 20:00 16.7° C wolkig
Mo, 23.04. 19:30 16.9° C bedeckt
Mo, 23.04. 19:00 17.1° C leicht bewölkt
Mo, 23.04. 18:30 17.5° C wolkig
Mo, 23.04. 18:00 17.9° C wolkig
Ortszeit Relative Feuchte Sichtweite
Mo, 23.04. 20:00 51% 55 km
Mo, 23.04. 14:00 49% 23 km
Mo, 23.04. 8:00 87% 13 km
Mo, 23.04. 2:00 87% 40 km
So, 22.04. 20:00 56% 29 km
So, 22.04. 14:00 42% 35 km
So, 22.04. 8:00 86% 16 km
So, 22.04. 2:00 92% 35 km
Ortszeit Relative Feuchte Sichtweite
Mo, 23.04. 21:00 55% 60 km
Mo, 23.04. 20:50 55% -
Mo, 23.04. 20:40 53% -
Mo, 23.04. 20:30 56% 50 km
Mo, 23.04. 20:20 56% -
Mo, 23.04. 20:10 53% -
Mo, 23.04. 20:00 51% 55 km
Mo, 23.04. 19:30 49% 50 km
Mo, 23.04. 19:00 49% 55 km
Mo, 23.04. 18:30 46% 40 km
Mo, 23.04. 18:00 45% 30 km
Ortszeit Niederschlagsmenge Niederschlagsart
Mo, 23.04. 20:00 0.0 l/m2 in 12 Std. -
Mo, 23.04. 14:00 0.0 l/m2 in 6 Std. -
Mo, 23.04. 8:00 0.2 l/m2 in 12 Std. Regen
Mo, 23.04. 2:00 0.2 l/m2 in 6 Std. Regen
So, 22.04. 20:00 0.0 l/m2 in 12 Std. -
So, 22.04. 14:00 0.0 l/m2 in 6 Std. -
So, 22.04. 8:00 0.0 l/m2 in 12 Std. -
So, 22.04. 2:00 0.0 l/m2 in 6 Std. -
Ortszeit Niederschlagsmenge Niederschlagsart
Mo, 23.04. 21:00 0.0 l/m2 in 1 Std. -
Mo, 23.04. 20:50 keine Meldung -
Mo, 23.04. 20:40 keine Meldung -
Mo, 23.04. 20:30 0.0 l/m2 in 1 Std. -
Mo, 23.04. 20:20 keine Meldung -
Mo, 23.04. 20:10 keine Meldung -
Mo, 23.04. 20:00 0.0 l/m2 in 1 Std. -
Mo, 23.04. 19:30 0.0 l/m2 in 1 Std. -
Mo, 23.04. 19:00 0.0 l/m2 in 1 Std. -
Mo, 23.04. 18:30 0.0 l/m2 in 1 Std. -
Mo, 23.04. 18:00 0.0 l/m2 in 1 Std. -
Ortszeit Stärke Spitze Richtung
km/h Bft. km/h Grad Sektor
Mo, 23.04. 20:00 9 2 43 270° W
Mo, 23.04. 14:00 25 4 43 240° SW
Mo, 23.04. 8:00 14 3 25 220° SW
Mo, 23.04. 2:00 7 2 32 220° SW
So, 22.04. 20:00 9 2 24 100° O
So, 22.04. 14:00 6 1 17 130° SO
So, 22.04. 8:00 4 1 7 30° NO
So, 22.04. 2:00 0 0 14 - -
Ortszeit Stärke Spitze Richtung
km/h Bft. km/h Grad Sektor
Mo, 23.04. 21:00 7 2 20 280° W
Mo, 23.04. 20:50 7 2 - 280° W
Mo, 23.04. 20:40 11 2 - 290° W
Mo, 23.04. 20:30 7 2 22 280° W
Mo, 23.04. 20:20 7 2 - 280° W
Mo, 23.04. 20:10 11 2 - 280° W
Mo, 23.04. 20:00 9 2 31 270° W
Mo, 23.04. 19:30 17 3 31 270° W
Mo, 23.04. 19:00 13 3 35 270° W
Mo, 23.04. 18:30 17 3 35 270° W
Mo, 23.04. 18:00 18 3 43 280° W
Ortszeit Untergrenze Bedeckung Gattung
total tief tief mittel hoch
Mo, 23.04. 20:00 1800 m 5/8 5/8 - - -
Mo, 23.04. 14:00 1500 m 2/8 2/8 - - -
Mo, 23.04. 8:00 3600 m 7/8 7/8 - - -
Mo, 23.04. 2:00 5400 m 5/8 5/8 - - -
So, 22.04. 20:00 - 0/8 0/8 - - -
So, 22.04. 14:00 3900 m 3/8 2/8 - - -
So, 22.04. 8:00 - 0/8 0/8 - - -
So, 22.04. 2:00 9000 m 7/8 0/8 - - -
Ortszeit Bedeckungsgrad in Achtel und Wolkenuntergrenze
Mo, 23.04. 21:00 5(1800m)
Mo, 23.04. 20:50 5(1800m)
Mo, 23.04. 20:40 5(1800m)
Mo, 23.04. 20:30 3(1800m) 4(7800m)
Mo, 23.04. 20:20 3(1800m) 4(7800m)
Mo, 23.04. 20:10 2(1800m) 4(7800m)
Mo, 23.04. 20:00 5(1800m) 5(6900m)
Mo, 23.04. 19:30 8(6900m) 3(2100m) 8(6900m)
Mo, 23.04. 19:00 3(1800m) 5(6900m)
Mo, 23.04. 18:30 4(2100m) 5(6300m)
Mo, 23.04. 18:00 4(1800m) 6(2100m)
Ortszeit Luftdruck NN (hPa) Tendenz (hPa in 3 Std.)
Mo, 23.04. 20:00 1013 + 0,8
Mo, 23.04. 14:00 1012 + 0,6
Mo, 23.04. 8:00 1010 + 0,4
Mo, 23.04. 2:00 1010 - 0,4
So, 22.04. 20:00 1010 - 1,9
So, 22.04. 14:00 1015 - 2,2
So, 22.04. 8:00 1018 - 0,7
So, 22.04. 2:00 1020 - 0,3
Ortszeit Luftdruck NN (hPa) Tendenz (hPa in 3 Std.)
Mo, 23.04. 21:00 1014 + 1,5
Mo, 23.04. 20:50 1014 keine Meldung
Mo, 23.04. 20:40 1014 keine Meldung
Mo, 23.04. 20:30 1014 + 1,1
Mo, 23.04. 20:20 1014 keine Meldung
Mo, 23.04. 20:10 1013 keine Meldung
Mo, 23.04. 20:00 1013 + 0,8
Mo, 23.04. 19:30 1013 + 0,5
Mo, 23.04. 19:00 1013 + 0,4
Mo, 23.04. 18:30 1013 + 0,6
Mo, 23.04. 18:00 1012 + 0,3
Ortszeit Schneehöhe (cm)
Mo, 23.04. 20:00 0
Mo, 23.04. 14:00 0
Mo, 23.04. 8:00 0
Mo, 23.04. 2:00 0
So, 22.04. 20:00 0
So, 22.04. 14:00 0
So, 22.04. 8:00 0
So, 22.04. 2:00 0
Ortszeit Schneehöhe (cm)
Mo, 23.04. 21:00 0
Mo, 23.04. 20:50 0
Mo, 23.04. 20:40 0
Mo, 23.04. 20:30 0
Mo, 23.04. 20:20 0
Mo, 23.04. 20:10 0
Mo, 23.04. 20:00 0
Mo, 23.04. 19:30 0
Mo, 23.04. 19:00 0
Mo, 23.04. 18:30 0
Mo, 23.04. 18:00 0
Link zu dieser Seite / Seite empfehlen

Das Wetter in ...